Home   Weather   India   Mohali   Past weeks
Flag for India

Past Weather in Mohali, Punjab, India — Yesterday and Last 2 Weeks

Currently: 75 °F. Partly cloudy. (Weather station: Amritsar Airport, India). See more current weather

Past Weather in Mohali — Graph

°F

Mohali Temperature Yesterday

Maximum temperature yesterday: 93 °F (at 2:00 pm)
Minimum temperature yesterday: 61 °F (at 6:00 am)
Average temperature yesterday: 78 °F

High & Low Weather Summary for the Past Weeks

 TemperatureHumidityPressure
High97 °F (Apr 10, 2:30 pm)100% (Apr 15, 11:30 pm)30.01 "Hg (Apr 15, 11:30 pm)
Low59 °F (Apr 6, 6:00 am)23% (Apr 9, 2:30 pm)29.74 "Hg (Apr 6, 4:30 pm)
Average77 °F63%29.84 "Hg
* Reported Apr 2 11:30 pm — Apr 18 12:00 am, Mohali. Weather by CustomWeather, © 2024

Note: Actual official high and low records may vary slightly from our data, if they occured in-between our weather recording intervals... More about our weather records

Mohali Weather History for the Previous 24 Hours

Scroll right to see more
 ConditionsComfort  
Time TempWeatherWind HumidityBarometerVisibility
12:00 am
Thu, Apr 18
75 °FPartly cloudy.2 mph65%29.80 "Hg4 mi
11:30 pm
Wed, Apr 17
77 °FPartly cloudy.3 mph57%29.80 "Hg4 mi
11:00 pm79 °FPartly cloudy.2 mph54%29.80 "Hg4 mi
10:30 pm79 °FPartly cloudy.2 mph51%29.80 "Hg4 mi
10:00 pm79 °FPartly cloudy.2 mph58%29.80 "Hg4 mi
9:30 pm81 °FPartly cloudy.2 mph51%29.80 "Hg4 mi
9:00 pm81 °FPartly cloudy.3 mph51%29.80 "Hg4 mi
8:30 pm82 °FPartly cloudy.3 mph45%29.80 "Hg4 mi
8:00 pm82 °FPartly cloudy.3 mph48%29.77 "Hg4 mi
7:30 pm82 °FBroken clouds.2 mph48%29.77 "Hg4 mi
6:00 pm88 °FBroken clouds.3 mph35%29.77 "Hg4 mi
5:30 pm90 °FBroken clouds.6 mph31%29.77 "Hg4 mi
5:00 pm91 °FBroken clouds.6 mph28%29.77 "Hg4 mi
4:30 pm91 °FBroken clouds.5 mph28%29.77 "Hg4 mi
4:00 pm91 °FScattered clouds.6 mph26%29.77 "Hg4 mi
3:30 pm93 °FClear.6 mph23%29.77 "Hg4 mi
3:00 pm93 °FClear.6 mph23%29.77 "Hg4 mi
2:30 pm93 °FClear.8 mph26%29.77 "Hg4 mi
2:00 pm93 °FScattered clouds.3 mph28%29.80 "Hg4 mi
1:30 pm91 °FScattered clouds.3 mph30%29.80 "Hg4 mi
1:00 pm91 °FScattered clouds.6 mph32%29.80 "Hg4 mi
12:30 pm91 °FPartly sunny.3 mph32%29.83 "Hg4 mi
12:00 pm91 °FScattered clouds.7 mph30%29.83 "Hg4 mi
11:00 am88 °FClear.8 mph46%29.83 "Hg4 mi
10:30 am84 °FClear.8 mph55%29.83 "Hg4 mi
10:00 am84 °FPassing clouds.8 mph58%29.83 "Hg4 mi
9:30 am82 °FPassing clouds.10 mph58%29.83 "Hg4 mi
9:00 am81 °FPassing clouds.8 mph62%29.83 "Hg4 mi
8:30 am75 °FPassing clouds.6 mph74%29.83 "Hg4 mi
8:00 am72 °FFog.3 mph83%29.83 "Hg2 mi
7:30 am70 °FFog.2 mph83%29.83 "Hg2 mi
7:00 am66 °FFog.No wind88%29.80 "Hg2 mi
6:30 am61 °FFog.2 mph94%29.80 "Hg2 mi
6:00 am61 °FFog.2 mph94%29.80 "Hg2 mi
5:30 am63 °FFog.2 mph94%29.80 "Hg3 mi
5:00 am63 °FClear.No wind94%29.80 "Hg4 mi
4:30 am64 °FClear.2 mph88%29.80 "Hg4 mi
4:00 am64 °FClear.2 mph88%29.80 "Hg4 mi
3:30 am66 °FClear.3 mph88%29.80 "Hg4 mi
3:00 am68 °FClear.3 mph83%29.80 "Hg4 mi
2:30 am66 °FClear.3 mph88%29.80 "Hg4 mi
2:00 am68 °FClear.3 mph83%29.83 "Hg4 mi
1:30 am68 °FClear.5 mph83%29.83 "Hg4 mi
1:00 am68 °FClear.3 mph83%29.83 "Hg4 mi
Weather by CustomWeather, © 2024

See weather overview